createdAt,value
2022-11-13T00:00:13.261Z,2.50
2022-11-13T00:02:45.434Z,2.63
2022-11-13T00:05:12.421Z,2.58
2022-11-13T00:07:48.798Z,2.50
2022-11-13T00:10:23.760Z,2.70
2022-11-13T00:12:54.661Z,2.58
2022-11-13T00:15:24.942Z,2.42
2022-11-13T00:17:55.611Z,2.60
2022-11-13T00:20:27.382Z,2.90
2022-11-13T00:22:54.508Z,2.47
2022-11-13T00:25:25.885Z,2.47
2022-11-13T00:27:57.099Z,2.53
2022-11-13T00:30:29.240Z,2.47
2022-11-13T00:32:59.589Z,2.33
2022-11-13T00:35:34.422Z,3.00
2022-11-13T00:38:07.550Z,2.42
2022-11-13T00:40:40.288Z,2.58
2022-11-13T00:43:07.235Z,2.08
2022-11-13T00:45:43.606Z,2.80
2022-11-13T00:48:10.689Z,2.47
2022-11-13T00:50:43.852Z,2.08
2022-11-13T00:53:16.796Z,2.45
2022-11-13T00:55:50.868Z,2.28
2022-11-13T00:58:27.860Z,2.35
2022-11-13T01:01:07.067Z,2.80
2022-11-13T01:03:35.242Z,2.58
2022-11-13T01:06:09.297Z,2.55
2022-11-13T01:08:39.009Z,2.08
2022-11-13T01:11:13.589Z,2.42
2022-11-13T01:13:44.605Z,2.38
2022-11-13T01:16:12.062Z,2.28
2022-11-13T01:18:43.154Z,2.60
2022-11-13T01:21:16.561Z,2.45
2022-11-13T01:23:43.444Z,2.30
2022-11-13T01:26:13.441Z,2.55
2022-11-13T01:28:45.435Z,2.50
2022-11-13T01:31:14.833Z,2.42
2022-11-13T01:33:42.078Z,2.13
2022-11-13T01:36:14.618Z,2.60
2022-11-13T01:38:42.198Z,2.20
2022-11-13T01:41:23.167Z,2.63
2022-11-13T01:43:53.797Z,2.15
2022-11-13T01:46:23.925Z,2.53
2022-11-13T01:48:55.742Z,2.60
2022-11-13T01:51:36.367Z,2.40
2022-11-13T01:54:08.963Z,2.35
2022-11-13T01:56:45.238Z,2.22
2022-11-13T01:59:22.356Z,2.30
2022-11-13T02:01:49.586Z,2.25
2022-11-13T02:04:22.423Z,2.63
2022-11-13T02:06:54.937Z,2.60
2022-11-13T02:09:25.119Z,2.78
2022-11-13T02:11:53.164Z,2.50
2022-11-13T02:14:21.445Z,2.78
2022-11-13T02:16:53.093Z,2.25
2022-11-13T02:19:25.402Z,2.42
2022-11-13T02:22:07.113Z,2.13
2022-11-13T02:24:42.035Z,2.80
2022-11-13T02:27:31.941Z,2.78
2022-11-13T02:29:58.732Z,2.58
2022-11-13T02:32:31.423Z,2.53
2022-11-13T02:35:03.385Z,2.63
2022-11-13T02:37:31.905Z,3.03
2022-11-13T02:39:59.202Z,2.40
2022-11-13T02:42:26.049Z,2.95
2022-11-13T02:44:56.131Z,2.88
2022-11-13T02:47:27.481Z,2.50
2022-11-13T02:49:54.359Z,2.70
2022-11-13T02:52:24.341Z,2.55
2022-11-13T02:54:56.644Z,2.40
2022-11-13T02:57:25.230Z,2.83
2022-11-13T02:59:56.189Z,2.42
2022-11-13T03:02:28.535Z,2.47
2022-11-13T03:05:11.885Z,2.33
2022-11-13T03:07:42.968Z,2.28
2022-11-13T03:10:15.045Z,2.63
2022-11-13T03:12:42.167Z,2.53
2022-11-13T03:15:12.630Z,2.60
2022-11-13T03:17:42.739Z,2.40
2022-11-13T03:20:12.895Z,2.38
2022-11-13T03:22:43.043Z,2.38
2022-11-13T03:25:11.136Z,2.50
2022-11-13T03:27:44.007Z,2.22
2022-11-13T03:30:11.989Z,2.10
2022-11-13T03:32:41.848Z,2.20
2022-11-13T03:35:15.091Z,1.85
2022-11-13T03:37:47.916Z,3.08
2022-11-13T03:40:20.863Z,1.90
2022-11-13T03:42:53.898Z,2.22
2022-11-13T03:45:29.519Z,2.38
2022-11-13T03:48:02.702Z,2.15
2022-11-13T03:50:30.267Z,2.40
2022-11-13T03:53:00.160Z,2.03
2022-11-13T03:55:30.455Z,2.40
2022-11-13T03:57:57.998Z,1.90
2022-11-13T04:00:27.507Z,2.15
2022-11-13T04:02:56.249Z,2.55
2022-11-13T04:05:27.183Z,2.50
2022-11-13T04:08:02.951Z,2.40
2022-11-13T04:10:32.104Z,2.13
2022-11-13T04:13:02.408Z,2.03
2022-11-13T04:15:32.484Z,2.58
2022-11-13T04:17:59.340Z,2.15
2022-11-13T04:20:31.018Z,2.33
2022-11-13T04:23:03.120Z,2.05
2022-11-13T04:25:35.615Z,2.22
2022-11-13T04:28:11.003Z,2.28
2022-11-13T04:30:41.623Z,2.28
2022-11-13T04:33:11.599Z,2.17
2022-11-13T04:35:46.218Z,2.20
2022-11-13T04:38:16.636Z,1.85
2022-11-13T04:40:46.715Z,1.95
2022-11-13T04:43:20.462Z,2.08
2022-11-13T04:45:53.131Z,2.40
2022-11-13T04:48:20.039Z,2.20
2022-11-13T04:50:53.421Z,2.50
2022-11-13T04:53:23.759Z,2.10
2022-11-13T04:55:56.565Z,2.30
2022-11-13T04:58:26.554Z,2.28
2022-11-13T05:00:59.746Z,2.40
2022-11-13T05:03:30.409Z,2.17
2022-11-13T05:06:07.967Z,1.90
2022-11-13T05:08:38.336Z,2.13
2022-11-13T05:11:09.068Z,2.00
2022-11-13T05:13:39.001Z,2.15
2022-11-13T05:16:13.679Z,2.05
2022-11-13T05:18:43.704Z,2.13
2022-11-13T05:21:14.241Z,1.67
2022-11-13T05:23:41.735Z,2.40
2022-11-13T05:26:13.606Z,2.17
2022-11-13T05:28:49.365Z,1.90
2022-11-13T05:31:18.141Z,2.13
2022-11-13T05:33:48.135Z,1.98
2022-11-13T05:36:21.594Z,1.98
2022-11-13T05:38:48.781Z,2.28
2022-11-13T05:41:23.559Z,2.10
2022-11-13T05:43:59.428Z,2.20
2022-11-13T05:46:27.854Z,2.30
2022-11-13T05:49:03.008Z,2.10
2022-11-13T05:51:31.147Z,1.95
2022-11-13T05:53:58.453Z,2.25
2022-11-13T05:56:37.057Z,2.00
2022-11-13T05:59:10.132Z,1.92
2022-11-13T06:01:44.465Z,1.90
2022-11-13T06:04:14.953Z,1.77
2022-11-13T06:06:48.321Z,1.83
2022-11-13T06:09:17.672Z,1.77
2022-11-13T06:11:50.644Z,2.17
2022-11-13T06:14:23.344Z,2.10
2022-11-13T06:16:50.600Z,1.63
2022-11-13T06:19:20.756Z,1.90
2022-11-13T06:21:50.969Z,1.92
2022-11-13T06:24:26.048Z,2.30
2022-11-13T06:26:55.928Z,2.08
2022-11-13T06:29:29.105Z,1.50
2022-11-13T06:32:00.138Z,1.77
2022-11-13T06:34:30.208Z,2.00
2022-11-13T06:37:03.103Z,1.58
2022-11-13T06:39:33.060Z,2.10
2022-11-13T06:42:08.805Z,1.50
2022-11-13T06:44:41.678Z,1.58
2022-11-13T06:47:11.613Z,2.00
2022-11-13T06:49:41.910Z,1.80
2022-11-13T06:52:11.886Z,1.83
2022-11-13T06:54:41.987Z,1.83
2022-11-13T06:57:12.016Z,1.92
2022-11-13T06:59:39.874Z,1.60
2022-11-13T07:02:09.952Z,1.63
2022-11-13T07:04:40.725Z,1.75
2022-11-13T07:07:15.200Z,1.60
2022-11-13T07:09:42.806Z,1.90
2022-11-13T07:12:18.645Z,2.30
2022-11-13T07:14:54.583Z,1.60
2022-11-13T07:17:26.768Z,1.45
2022-11-13T07:19:57.252Z,1.88
2022-11-13T07:22:31.401Z,1.52
2022-11-13T07:25:04.229Z,1.55
2022-11-13T07:27:37.044Z,1.77
2022-11-13T07:30:07.211Z,1.98
2022-11-13T07:32:34.200Z,1.80
2022-11-13T07:35:01.120Z,1.50
2022-11-13T07:37:31.342Z,2.13
2022-11-13T07:40:01.628Z,2.03
2022-11-13T07:42:32.187Z,2.15
2022-11-13T07:45:02.279Z,1.98
2022-11-13T07:47:29.596Z,2.00
2022-11-13T07:50:04.576Z,1.80
2022-11-13T07:52:40.362Z,2.00
2022-11-13T07:55:07.549Z,2.03
2022-11-13T07:57:40.765Z,2.60
2022-11-13T08:00:14.069Z,1.85
2022-11-13T08:02:41.610Z,1.90
2022-11-13T08:05:11.626Z,2.05
2022-11-13T08:07:42.979Z,1.60
2022-11-13T08:10:15.440Z,2.15
2022-11-13T08:12:45.980Z,2.08
2022-11-13T08:15:15.798Z,1.70
2022-11-13T08:17:45.830Z,2.08
2022-11-13T08:20:13.081Z,2.25
2022-11-13T08:22:46.608Z,2.63
2022-11-13T08:25:15.365Z,2.40
2022-11-13T08:27:51.362Z,2.45
2022-11-13T08:30:22.763Z,2.22
2022-11-13T08:32:53.021Z,2.38
2022-11-13T08:35:29.129Z,2.22
2022-11-13T08:38:01.844Z,3.20
2022-11-13T08:40:31.778Z,3.17
2022-11-13T08:43:02.871Z,2.38
2022-11-13T08:45:30.209Z,2.60
2022-11-13T08:48:01.412Z,3.13
2022-11-13T08:50:29.499Z,2.00
2022-11-13T08:53:03.120Z,2.65
2022-11-13T08:55:36.208Z,2.70
2022-11-13T08:58:08.395Z,2.50
2022-11-13T09:00:38.657Z,2.47
2022-11-13T09:03:08.788Z,2.22
2022-11-13T09:05:35.680Z,2.60
2022-11-13T09:08:11.526Z,2.08
2022-11-13T09:10:42.011Z,2.35
2022-11-13T09:13:10.008Z,2.22
2022-11-13T09:15:39.819Z,2.58
2022-11-13T09:18:14.355Z,2.80
2022-11-13T09:20:44.361Z,3.03
2022-11-13T09:23:16.119Z,2.92
2022-11-13T09:25:51.889Z,3.15
2022-11-13T09:28:19.320Z,3.17
2022-11-13T09:30:49.711Z,3.60
2022-11-13T09:33:22.640Z,3.10
2022-11-13T09:35:52.889Z,3.50
2022-11-13T09:38:26.203Z,2.83
2022-11-13T09:41:02.927Z,2.15
2022-11-13T09:43:41.963Z,2.20
2022-11-13T09:46:24.051Z,2.03
2022-11-13T09:48:55.908Z,2.33
2022-11-13T09:51:40.857Z,2.55
2022-11-13T09:54:16.201Z,2.15
2022-11-13T09:56:50.810Z,2.55
2022-11-13T09:59:29.653Z,2.53
2022-11-13T10:02:17.033Z,3.13
2022-11-13T10:04:47.057Z,2.60
2022-11-13T10:07:46.689Z,2.70
2022-11-13T10:10:22.846Z,2.75
2022-11-13T10:13:00.848Z,2.63
2022-11-13T10:15:32.521Z,2.10
2022-11-13T10:18:19.558Z,2.63
2022-11-13T10:20:58.326Z,2.50
2022-11-13T10:23:31.603Z,3.00
2022-11-13T10:26:11.249Z,3.53
2022-11-13T10:28:52.155Z,3.17
2022-11-13T10:31:22.315Z,1.52
2022-11-13T10:33:53.113Z,2.95
2022-11-13T10:36:19.894Z,2.78
2022-11-13T10:39:00.383Z,3.38
2022-11-13T10:41:29.318Z,4.10
2022-11-13T10:44:04.136Z,4.25
2022-11-13T10:46:31.408Z,4.25
2022-11-13T10:48:58.409Z,3.65
2022-11-13T10:51:37.423Z,3.97
2022-11-13T10:54:23.354Z,4.25
2022-11-13T10:57:06.853Z,3.90
2022-11-13T10:59:41.301Z,3.35
2022-11-13T11:02:23.058Z,3.33
2022-11-13T11:04:50.079Z,3.17
2022-11-13T11:07:24.560Z,3.10
2022-11-13T11:09:57.021Z,2.28
2022-11-13T11:12:30.965Z,2.15
2022-11-13T11:15:03.629Z,3.25
2022-11-13T11:17:36.441Z,3.15
2022-11-13T11:20:23.527Z,3.40
2022-11-13T11:23:01.054Z,2.83
2022-11-13T11:25:54.849Z,2.83
2022-11-13T11:28:28.453Z,2.97
2022-11-13T11:31:14.450Z,2.15
2022-11-13T11:33:54.058Z,3.38
2022-11-13T11:36:33.042Z,2.00
2022-11-13T11:39:03.125Z,1.92
2022-11-13T11:41:34.881Z,2.60
2022-11-13T11:44:17.845Z,2.85
2022-11-13T11:46:51.110Z,2.10
2022-11-13T11:49:21.708Z,2.17
2022-11-13T11:52:03.763Z,2.45
2022-11-13T11:54:33.625Z,1.98
2022-11-13T11:57:07.536Z,2.28
2022-11-13T11:59:51.799Z,2.15
2022-11-13T12:02:37.007Z,2.45
2022-11-13T12:05:06.919Z,2.35
2022-11-13T12:07:52.834Z,2.30
2022-11-13T12:10:26.354Z,2.00
2022-11-13T12:12:56.495Z,3.05
2022-11-13T12:15:40.840Z,2.65
2022-11-13T12:18:31.287Z,2.33
2022-11-13T12:21:08.002Z,1.90
2022-11-13T12:23:53.790Z,2.10
2022-11-13T12:26:25.498Z,2.28
2022-11-13T12:29:05.247Z,2.28
2022-11-13T12:31:39.567Z,2.13
2022-11-13T12:34:15.593Z,2.15
2022-11-13T12:36:46.697Z,2.17
2022-11-13T12:39:19.666Z,2.03
2022-11-13T12:42:05.445Z,2.25
2022-11-13T12:44:58.445Z,1.55
2022-11-13T12:47:54.714Z,2.00
2022-11-13T12:50:28.868Z,1.85
2022-11-13T12:53:09.810Z,2.05
2022-11-13T12:55:41.185Z,1.98
2022-11-13T12:58:10.940Z,1.52
2022-11-13T13:00:51.324Z,1.70
2022-11-13T13:03:22.175Z,2.35
2022-11-13T13:06:18.682Z,2.15
2022-11-13T13:08:51.169Z,2.13
2022-11-13T13:11:36.245Z,1.85
2022-11-13T13:14:19.327Z,2.08
2022-11-13T13:16:46.243Z,2.53
2022-11-13T13:19:25.000Z,2.13
2022-11-13T13:21:57.145Z,1.90
2022-11-13T13:24:51.585Z,1.70
2022-11-13T13:27:41.805Z,1.70
2022-11-13T13:30:22.908Z,1.70
2022-11-13T13:33:08.240Z,1.70
2022-11-13T13:35:42.498Z,2.10
2022-11-13T13:38:21.927Z,1.60
2022-11-13T13:41:01.917Z,1.70
2022-11-13T13:43:35.155Z,1.60
2022-11-13T13:46:14.497Z,1.65
2022-11-13T13:48:50.148Z,1.48
2022-11-13T13:51:24.067Z,2.00
2022-11-13T13:53:56.549Z,1.67
2022-11-13T13:56:26.919Z,1.30
2022-11-13T13:58:57.184Z,1.60
2022-11-13T14:01:48.376Z,1.85
2022-11-13T14:04:18.589Z,1.73
2022-11-13T14:06:53.679Z,1.48
2022-11-13T14:09:24.824Z,1.30
2022-11-13T14:14:55.856Z,1.80
2022-11-13T14:17:32.335Z,1.80
2022-11-13T14:20:01.962Z,1.90
2022-11-13T14:22:38.376Z,1.83
2022-11-13T14:25:28.075Z,1.95
2022-11-13T14:27:57.391Z,1.98
2022-11-13T14:30:31.135Z,1.80
2022-11-13T14:33:03.149Z,1.92
2022-11-13T14:35:32.651Z,2.35
2022-11-13T14:37:59.595Z,2.20
2022-11-13T14:40:35.942Z,2.28
2022-11-13T14:43:05.675Z,2.47
2022-11-13T14:45:34.581Z,2.42
2022-11-13T14:48:18.941Z,2.20
2022-11-13T14:50:53.829Z,2.10
2022-11-13T14:53:38.815Z,2.05
2022-11-13T14:56:10.460Z,1.90
2022-11-13T14:58:55.421Z,1.83
2022-11-13T15:01:23.476Z,2.22
2022-11-13T15:03:53.480Z,2.30
2022-11-13T15:06:22.099Z,2.05
2022-11-13T15:08:53.320Z,2.38
2022-11-13T15:11:26.271Z,2.10
2022-11-13T15:14:01.413Z,2.28
2022-11-13T15:16:37.142Z,2.40
2022-11-13T15:19:09.870Z,2.30
2022-11-13T15:21:39.855Z,1.67
2022-11-13T15:24:07.258Z,1.80
2022-11-13T15:26:34.875Z,1.90
2022-11-13T15:29:04.840Z,1.75
2022-11-13T15:31:41.380Z,1.60
2022-11-13T15:34:12.728Z,1.58
2022-11-13T15:36:46.296Z,1.85
2022-11-13T15:39:23.530Z,1.52
2022-11-13T15:41:54.476Z,1.63
2022-11-13T15:44:22.212Z,1.45
2022-11-13T15:46:49.059Z,1.65
2022-11-13T15:49:17.415Z,1.95
2022-11-13T15:51:47.649Z,1.52
2022-11-13T15:54:28.855Z,1.50
2022-11-13T15:56:56.185Z,1.85
2022-11-13T15:59:28.558Z,1.55
2022-11-13T16:01:58.993Z,1.70
2022-11-13T16:04:44.071Z,1.73
2022-11-13T16:07:22.162Z,1.30
2022-11-13T16:09:53.668Z,1.25
2022-11-13T16:12:24.250Z,1.50
2022-11-13T16:14:56.753Z,1.38
2022-11-13T16:17:24.237Z,1.30
2022-11-13T16:19:58.964Z,1.70
2022-11-13T16:22:29.899Z,1.42
2022-11-13T16:25:00.657Z,1.60
2022-11-13T16:27:36.093Z,1.45
2022-11-13T16:30:07.291Z,1.23
2022-11-13T16:32:40.482Z,1.55
2022-11-13T16:35:10.759Z,1.75
2022-11-13T16:37:37.626Z,1.67
2022-11-13T16:40:07.408Z,1.55
2022-11-13T16:42:38.827Z,1.27
2022-11-13T16:45:08.697Z,1.75
2022-11-13T16:47:39.400Z,1.55
2022-11-13T16:50:12.910Z,1.98
2022-11-13T16:52:39.783Z,1.70
2022-11-13T16:55:10.294Z,1.52
2022-11-13T16:57:43.355Z,1.55
2022-11-13T17:00:18.362Z,1.80
2022-11-13T17:02:48.740Z,1.60
2022-11-13T17:05:18.273Z,1.80
2022-11-13T17:07:45.280Z,2.25
2022-11-13T17:10:34.049Z,2.05
2022-11-13T17:13:01.221Z,2.45
2022-11-13T17:15:28.129Z,2.55
2022-11-13T17:17:57.141Z,3.35
2022-11-13T17:20:27.091Z,3.10
2022-11-13T17:22:54.404Z,3.40
2022-11-13T17:25:29.687Z,2.50
2022-11-13T17:27:59.468Z,2.83
2022-11-13T17:30:32.013Z,3.38
2022-11-13T17:33:02.483Z,2.95
2022-11-13T17:35:33.093Z,2.38
2022-11-13T17:38:05.841Z,2.47
2022-11-13T17:40:40.024Z,3.13
2022-11-13T17:43:10.059Z,3.30
2022-11-13T17:45:38.945Z,4.43
2022-11-13T17:48:09.371Z,4.43
2022-11-13T17:50:39.454Z,2.70
2022-11-13T17:53:09.678Z,4.40
2022-11-13T17:55:39.780Z,4.97
2022-11-13T17:58:11.660Z,4.80
2022-11-13T18:00:38.622Z,4.50
2022-11-13T18:03:05.648Z,4.72
2022-11-13T18:05:40.641Z,4.50
2022-11-13T18:08:08.197Z,4.68
2022-11-13T18:10:41.803Z,4.80
2022-11-13T18:13:12.341Z,4.72
2022-11-13T18:15:43.907Z,3.83
2022-11-13T18:18:13.990Z,3.00
2022-11-13T18:20:43.775Z,3.42
2022-11-13T18:23:13.923Z,3.75
2022-11-13T18:25:47.007Z,3.88
2022-11-13T18:28:13.940Z,4.45
2022-11-13T18:30:41.945Z,3.70
2022-11-13T18:33:11.945Z,2.58
2022-11-13T18:35:44.486Z,2.55
2022-11-13T18:38:25.921Z,4.00
2022-11-13T18:41:09.531Z,4.07
2022-11-13T18:43:42.467Z,2.67
2022-11-13T18:46:10.044Z,3.33
2022-11-13T18:48:38.821Z,3.50
2022-11-13T18:51:16.630Z,2.70
2022-11-13T18:53:46.026Z,3.30
2022-11-13T18:56:14.975Z,2.55
2022-11-13T18:58:45.695Z,2.60
2022-11-13T19:01:20.505Z,2.85
2022-11-13T19:04:08.405Z,2.47
2022-11-13T19:06:42.064Z,3.28
2022-11-13T19:09:11.534Z,2.55
2022-11-13T19:11:39.347Z,2.88
2022-11-13T19:14:09.243Z,2.28
2022-11-13T19:16:40.980Z,3.05
2022-11-13T19:19:18.737Z,2.50
2022-11-13T19:21:49.661Z,2.88
2022-11-13T19:24:20.179Z,2.42
2022-11-13T19:26:47.181Z,2.20
2022-11-13T19:29:17.694Z,2.20
2022-11-13T19:31:47.933Z,1.95
2022-11-13T19:34:16.060Z,3.00
2022-11-13T19:36:46.816Z,2.53
2022-11-13T19:39:15.542Z,2.70
2022-11-13T19:41:47.469Z,2.13
2022-11-13T19:44:14.581Z,2.30
2022-11-13T19:46:43.540Z,2.60
2022-11-13T19:49:15.791Z,2.78
2022-11-13T19:51:48.214Z,2.40
2022-11-13T19:54:21.520Z,2.33
2022-11-13T19:56:48.619Z,2.22
2022-11-13T19:59:19.253Z,2.85
2022-11-13T20:01:54.992Z,2.22
2022-11-13T20:04:27.896Z,2.20
2022-11-13T20:06:59.872Z,2.17
2022-11-13T20:09:35.026Z,2.33
2022-11-13T20:12:05.220Z,2.42
2022-11-13T20:14:37.936Z,2.40
2022-11-13T20:17:08.662Z,2.60
2022-11-13T20:19:41.767Z,2.75
2022-11-13T20:22:14.662Z,2.60
2022-11-13T20:24:50.484Z,2.33
2022-11-13T20:27:17.778Z,2.50
2022-11-13T20:29:44.745Z,2.58
2022-11-13T20:32:16.071Z,2.38
2022-11-13T20:34:45.941Z,2.83
2022-11-13T20:37:14.524Z,2.60
2022-11-13T20:39:42.197Z,2.33
2022-11-13T20:42:12.639Z,2.60
2022-11-13T20:44:42.764Z,2.40
2022-11-13T20:47:12.431Z,2.15
2022-11-13T20:49:42.655Z,2.40
2022-11-13T20:52:10.205Z,2.88
2022-11-13T20:54:43.022Z,2.80
2022-11-13T20:57:11.051Z,3.00
2022-11-13T20:59:37.940Z,2.30
2022-11-13T21:02:08.330Z,2.45
2022-11-13T21:04:37.279Z,3.00
2022-11-13T21:07:12.834Z,2.75
2022-11-13T21:09:48.788Z,2.78
2022-11-13T21:12:23.341Z,2.72
2022-11-13T21:14:56.265Z,2.83
2022-11-13T21:17:28.580Z,2.22
2022-11-13T21:20:07.604Z,2.67
2022-11-13T21:22:34.723Z,2.20
2022-11-13T21:25:06.161Z,2.85
2022-11-13T21:27:36.486Z,2.83
2022-11-13T21:30:06.770Z,3.15
2022-11-13T21:32:39.923Z,2.45
2022-11-13T21:35:09.045Z,2.50
2022-11-13T21:37:39.744Z,2.90
2022-11-13T21:40:10.181Z,2.60
2022-11-13T21:42:43.450Z,2.97
2022-11-13T21:45:19.872Z,2.58
2022-11-13T21:47:48.883Z,3.38
2022-11-13T21:50:19.831Z,2.72
2022-11-13T21:52:48.028Z,2.50
2022-11-13T21:55:18.166Z,2.72
2022-11-13T21:57:49.852Z,2.42
2022-11-13T22:00:20.281Z,2.70
2022-11-13T22:02:50.221Z,2.83
2022-11-13T22:05:23.419Z,2.72
2022-11-13T22:07:54.296Z,2.60
2022-11-13T22:10:27.069Z,2.72
2022-11-13T22:12:57.088Z,2.30
2022-11-13T22:15:27.119Z,2.92
2022-11-13T22:18:12.542Z,3.10
2022-11-13T22:20:39.780Z,3.00
2022-11-13T22:23:13.134Z,2.90
2022-11-13T22:25:43.012Z,3.28
2022-11-13T22:30:58.973Z,2.95
2022-11-13T22:33:36.167Z,2.35
2022-11-13T22:36:07.546Z,3.03
2022-11-13T22:38:41.124Z,2.92
2022-11-13T22:41:13.294Z,2.58
2022-11-13T22:43:50.027Z,2.47
2022-11-13T22:46:21.790Z,3.00
2022-11-13T22:48:55.457Z,2.92
2022-11-13T22:51:27.471Z,3.35
2022-11-13T22:54:02.097Z,3.38
2022-11-13T22:56:35.451Z,2.58
2022-11-13T22:59:06.509Z,2.65
2022-11-13T23:01:34.383Z,2.83
2022-11-13T23:04:04.018Z,2.80
2022-11-13T23:06:39.442Z,2.50
2022-11-13T23:09:07.108Z,2.78
2022-11-13T23:11:35.384Z,2.67
2022-11-13T23:14:06.769Z,3.33
2022-11-13T23:16:34.816Z,3.47
2022-11-13T23:19:08.191Z,3.20
2022-11-13T23:21:40.844Z,3.08
2022-11-13T23:24:11.742Z,3.30
2022-11-13T23:26:41.416Z,2.90
2022-11-13T23:29:14.758Z,3.00
2022-11-13T23:31:45.124Z,2.90
2022-11-13T23:34:26.905Z,3.35
2022-11-13T23:37:02.624Z,2.92
2022-11-13T23:39:29.462Z,3.20
2022-11-13T23:41:59.488Z,3.20
2022-11-13T23:44:29.589Z,3.15
2022-11-13T23:47:00.026Z,3.20
2022-11-13T23:49:33.725Z,2.75
2022-11-13T23:52:03.486Z,3.40
2022-11-13T23:54:34.963Z,3.38
2022-11-13T23:57:10.148Z,3.40
2022-11-13T23:59:40.273Z,3.63
